createdAt,value
2017-10-23T00:01:42.093Z,73.50
2017-10-23T00:04:10.478Z,73.50
2017-10-23T00:06:38.904Z,74.00
2017-10-23T00:09:07.006Z,73.40
2017-10-23T00:11:35.219Z,73.30
2017-10-23T00:14:03.279Z,74.60
2017-10-23T00:16:31.694Z,74.40
2017-10-23T00:19:00.129Z,74.60
2017-10-23T00:21:28.970Z,74.60
2017-10-23T00:23:57.519Z,74.60
2017-10-23T00:26:26.017Z,74.10
2017-10-23T00:28:54.637Z,74.10
2017-10-23T00:31:23.037Z,73.40
2017-10-23T00:33:51.184Z,72.70
2017-10-23T00:36:19.303Z,73.10
2017-10-23T00:38:47.737Z,72.60
2017-10-23T00:41:16.237Z,71.50
2017-10-23T00:43:44.669Z,71.90
2017-10-23T00:46:12.378Z,76.90
2017-10-23T00:48:40.794Z,72.40
2017-10-23T00:51:09.257Z,73.00
2017-10-23T00:53:37.878Z,73.70
2017-10-23T00:56:06.633Z,74.40
2017-10-23T00:58:35.513Z,74.70
2017-10-23T01:01:04.464Z,74.80
2017-10-23T01:03:33.046Z,74.40
2017-10-23T01:06:01.591Z,74.60
2017-10-23T01:08:30.063Z,74.70
2017-10-23T01:10:58.485Z,74.90
2017-10-23T01:13:26.963Z,75.00
2017-10-23T01:15:55.033Z,74.90
2017-10-23T01:18:23.800Z,74.50
2017-10-23T01:20:52.339Z,74.60
2017-10-23T01:23:20.705Z,74.30
2017-10-23T01:25:48.858Z,74.00
2017-10-23T01:28:17.043Z,73.80
2017-10-23T01:30:45.228Z,72.80
2017-10-23T01:33:13.482Z,72.90
2017-10-23T01:35:42.819Z,73.00
2017-10-23T01:38:11.317Z,73.00
2017-10-23T01:40:39.524Z,73.50
2017-10-23T01:43:07.749Z,72.80
2017-10-23T01:45:36.723Z,72.50
2017-10-23T01:48:04.882Z,71.60
2017-10-23T01:50:33.390Z,72.20
2017-10-23T01:53:01.441Z,73.70
2017-10-23T01:55:30.765Z,72.50
2017-10-23T01:57:59.338Z,72.90
2017-10-23T02:00:28.655Z,73.60
2017-10-23T02:02:56.838Z,73.70
2017-10-23T02:05:25.317Z,74.00
2017-10-23T02:07:53.417Z,74.10
2017-10-23T02:10:21.560Z,73.40
2017-10-23T02:12:50.152Z,73.20
2017-10-23T02:15:18.773Z,73.40
2017-10-23T02:17:47.350Z,73.70
2017-10-23T02:20:16.688Z,73.10
2017-10-23T02:22:45.277Z,73.80
2017-10-23T02:25:14.553Z,73.40
2017-10-23T02:27:43.040Z,73.80
2017-10-23T02:30:11.544Z,73.90
2017-10-23T02:32:39.796Z,73.90
2017-10-23T02:35:08.353Z,73.70
2017-10-23T02:37:36.991Z,73.70
2017-10-23T02:40:05.983Z,74.70
2017-10-23T02:42:34.403Z,75.70
2017-10-23T02:45:03.081Z,76.00
2017-10-23T02:47:31.171Z,76.40
2017-10-23T02:49:59.642Z,76.70
2017-10-23T02:52:27.799Z,76.80
2017-10-23T02:54:56.356Z,76.40
2017-10-23T02:57:24.583Z,76.00
2017-10-23T02:59:52.641Z,75.50
2017-10-23T03:02:20.726Z,74.80
2017-10-23T03:04:49.296Z,75.30
2017-10-23T03:07:17.506Z,75.00
2017-10-23T03:09:45.646Z,75.40
2017-10-23T03:12:13.828Z,75.30
2017-10-23T03:14:42.394Z,74.90
2017-10-23T03:17:10.953Z,74.60
2017-10-23T03:19:39.433Z,74.80
2017-10-23T03:22:07.505Z,74.70
2017-10-23T03:24:35.993Z,74.80
2017-10-23T03:27:04.129Z,74.50
2017-10-23T03:29:32.329Z,74.40
2017-10-23T03:32:00.845Z,74.30
2017-10-23T03:34:29.131Z,74.80
2017-10-23T03:36:57.293Z,74.90
2017-10-23T03:39:25.576Z,74.60
2017-10-23T03:41:53.771Z,74.30
2017-10-23T03:44:21.977Z,73.90
2017-10-23T03:46:50.592Z,74.60
2017-10-23T03:49:18.661Z,74.90
2017-10-23T03:51:46.942Z,75.40
2017-10-23T03:54:15.140Z,74.80
2017-10-23T03:56:43.290Z,74.60
2017-10-23T03:59:11.953Z,74.60
2017-10-23T04:01:41.447Z,74.70
2017-10-23T04:04:10.300Z,74.50
2017-10-23T04:06:38.953Z,74.30
2017-10-23T04:09:07.492Z,74.10
2017-10-23T04:11:35.592Z,74.10
2017-10-23T04:14:04.323Z,74.30
2017-10-23T04:16:33.185Z,74.30
2017-10-23T04:19:01.441Z,74.10
2017-10-23T04:21:29.724Z,74.50
2017-10-23T04:23:58.296Z,73.70
2017-10-23T04:26:26.992Z,73.20
2017-10-23T04:28:55.871Z,73.70
2017-10-23T04:31:24.385Z,73.50
2017-10-23T04:33:52.520Z,73.90
2017-10-23T04:36:20.731Z,73.90
2017-10-23T04:38:49.193Z,74.10
2017-10-23T04:41:17.753Z,74.00
2017-10-23T04:43:45.908Z,73.30
2017-10-23T04:46:14.750Z,73.30
2017-10-23T04:48:43.272Z,73.30
2017-10-23T04:51:11.464Z,73.20
2017-10-23T04:53:39.556Z,73.00
2017-10-23T04:56:08.761Z,73.50
2017-10-23T05:01:06.594Z,73.50
2017-10-23T05:03:35.130Z,73.70
2017-10-23T05:06:04.101Z,74.00
2017-10-23T05:08:32.546Z,74.30
2017-10-23T05:11:00.578Z,73.50
2017-10-23T05:13:29.070Z,74.00
2017-10-23T05:15:57.470Z,74.00
2017-10-23T05:18:25.489Z,73.90
2017-10-23T05:20:54.594Z,74.10
2017-10-23T05:23:23.529Z,73.70
2017-10-23T05:25:52.530Z,74.10
2017-10-23T05:28:20.688Z,73.70
2017-10-23T05:30:49.595Z,73.70
2017-10-23T05:33:17.381Z,76.40
2017-10-23T05:35:45.963Z,73.40
2017-10-23T05:38:14.526Z,73.80
2017-10-23T05:40:42.994Z,74.40
2017-10-23T05:43:11.106Z,74.10
2017-10-23T05:45:40.406Z,74.10
2017-10-23T05:48:08.961Z,74.30
2017-10-23T05:50:37.425Z,75.00
2017-10-23T05:53:05.485Z,75.00
2017-10-23T05:58:04.038Z,75.50
2017-10-23T06:00:32.191Z,75.10
2017-10-23T06:03:00.666Z,74.70
2017-10-23T06:05:29.860Z,74.80
2017-10-23T06:07:58.397Z,75.60
2017-10-23T06:10:26.835Z,74.80
2017-10-23T06:12:55.702Z,75.10
2017-10-23T06:15:24.470Z,74.80
2017-10-23T06:17:53.711Z,74.50
2017-10-23T06:20:22.617Z,74.20
2017-10-23T06:22:51.134Z,73.80
2017-10-23T06:25:20.244Z,73.30
2017-10-23T06:27:48.753Z,73.60
2017-10-23T06:30:17.233Z,73.30
2017-10-23T06:32:46.244Z,72.90
2017-10-23T06:35:14.778Z,72.30
2017-10-23T06:37:42.959Z,73.00
2017-10-23T06:40:11.433Z,73.30
2017-10-23T06:42:39.855Z,73.00
2017-10-23T06:45:07.998Z,72.90
2017-10-23T06:47:36.382Z,73.30
2017-10-23T06:50:05.255Z,73.30
2017-10-23T06:52:34.409Z,73.00
2017-10-23T06:55:02.605Z,72.80
2017-10-23T06:57:31.465Z,72.80
2017-10-23T06:59:59.925Z,72.80
2017-10-23T07:02:28.495Z,72.70
2017-10-23T07:04:56.602Z,73.00
2017-10-23T07:07:25.157Z,72.50
2017-10-23T07:12:22.700Z,72.50
2017-10-23T07:14:51.222Z,73.60
2017-10-23T07:17:19.666Z,73.50
2017-10-23T07:19:48.142Z,74.00
2017-10-23T07:22:16.626Z,75.30
2017-10-23T07:24:44.738Z,76.60
2017-10-23T07:29:41.958Z,76.60
2017-10-23T07:32:10.528Z,76.30
2017-10-23T07:34:38.841Z,76.10
2017-10-23T07:37:07.354Z,75.60
2017-10-23T07:39:35.882Z,73.90
2017-10-23T07:42:04.357Z,74.30
2017-10-23T07:44:32.946Z,74.40
2017-10-23T07:47:01.520Z,74.60
2017-10-23T07:49:30.009Z,74.00
2017-10-23T07:51:58.122Z,73.80
2017-10-23T07:54:26.568Z,74.10
2017-10-23T07:56:55.158Z,74.20
2017-10-23T07:59:24.353Z,74.60
2017-10-23T08:01:52.550Z,74.30
2017-10-23T08:04:20.663Z,74.10
2017-10-23T08:06:48.842Z,74.70
2017-10-23T08:09:17.278Z,74.20
2017-10-23T08:11:45.808Z,74.30
2017-10-23T08:14:13.974Z,73.60
2017-10-23T08:16:42.564Z,74.10
2017-10-23T08:19:11.118Z,74.40
2017-10-23T08:21:39.657Z,73.80
2017-10-23T08:26:36.946Z,74.40
2017-10-23T08:29:05.447Z,74.80
2017-10-23T08:31:34.657Z,74.60
2017-10-23T08:34:03.265Z,73.60
2017-10-23T08:36:32.397Z,73.90
2017-10-23T08:39:01.223Z,73.40
2017-10-23T08:41:30.244Z,74.40
2017-10-23T08:43:58.933Z,74.10
2017-10-23T08:46:27.683Z,73.10
2017-10-23T08:48:55.827Z,72.80
2017-10-23T08:51:24.426Z,72.60
2017-10-23T08:53:53.161Z,72.50
2017-10-23T08:58:51.102Z,72.60
2017-10-23T09:01:19.267Z,72.60
2017-10-23T09:03:47.681Z,73.50
2017-10-23T09:06:16.286Z,72.80
2017-10-23T09:08:44.328Z,72.30
2017-10-23T09:11:12.804Z,72.60
2017-10-23T09:13:41.309Z,72.70
2017-10-23T09:16:09.590Z,72.40
2017-10-23T09:18:37.721Z,71.60
2017-10-23T09:21:06.928Z,71.70
2017-10-23T09:23:35.495Z,72.00
2017-10-23T09:26:03.963Z,71.50
2017-10-23T09:28:32.090Z,71.20
2017-10-23T09:31:00.154Z,71.30
2017-10-23T09:33:28.601Z,72.40
2017-10-23T09:35:56.709Z,71.50
2017-10-23T09:38:25.174Z,72.00
2017-10-23T09:40:53.798Z,72.10
2017-10-23T09:43:22.312Z,71.60
2017-10-23T09:45:50.111Z,71.90
2017-10-23T09:48:17.850Z,77.70
2017-10-23T09:50:46.464Z,70.40
2017-10-23T09:53:16.091Z,69.90
2017-10-23T09:55:44.217Z,70.80
2017-10-23T09:58:12.665Z,70.70
2017-10-23T10:00:40.955Z,71.50
2017-10-23T10:03:09.521Z,70.70
2017-10-23T10:05:38.103Z,70.90
2017-10-23T10:08:06.512Z,70.80
2017-10-23T10:10:34.672Z,71.10
2017-10-23T10:13:02.679Z,70.40
2017-10-23T10:15:31.140Z,70.90
2017-10-23T10:17:59.197Z,71.60
2017-10-23T10:20:28.093Z,71.80
2017-10-23T10:22:56.590Z,71.20
2017-10-23T10:25:25.839Z,71.00
2017-10-23T10:27:53.878Z,70.80
2017-10-23T10:30:22.013Z,70.30
2017-10-23T10:32:50.536Z,68.90
2017-10-23T10:35:19.863Z,68.60
2017-10-23T10:37:47.592Z,74.70
2017-10-23T10:40:16.130Z,69.70
2017-10-23T10:42:45.054Z,70.40
2017-10-23T10:45:13.216Z,70.00
2017-10-23T10:47:41.755Z,70.30
2017-10-23T10:50:09.791Z,69.90
2017-10-23T10:52:38.402Z,70.30
2017-10-23T10:55:06.867Z,70.20
2017-10-23T10:57:34.504Z,73.90
2017-10-23T11:00:02.660Z,68.70
2017-10-23T11:02:30.302Z,68.90
2017-10-23T11:04:58.425Z,69.00
2017-10-23T11:07:26.853Z,68.90
2017-10-23T11:09:55.019Z,68.80
2017-10-23T11:12:24.210Z,68.60
2017-10-23T11:14:52.593Z,68.50
2017-10-23T11:17:20.283Z,72.50
2017-10-23T11:19:47.971Z,69.20
2017-10-23T11:22:15.798Z,68.90
2017-10-23T11:24:43.959Z,66.90
2017-10-23T11:27:12.553Z,66.60
2017-10-23T11:29:40.206Z,67.20
2017-10-23T11:32:07.913Z,65.40
2017-10-23T11:34:35.554Z,65.00
2017-10-23T11:37:04.106Z,65.50
2017-10-23T11:39:32.016Z,65.90
2017-10-23T11:41:59.864Z,64.50
2017-10-23T11:44:27.717Z,64.60
2017-10-23T11:46:55.497Z,64.40
2017-10-23T11:49:23.370Z,63.60
2017-10-23T11:51:51.177Z,64.90
2017-10-23T11:54:19.491Z,65.10
2017-10-23T11:56:47.248Z,69.70
2017-10-23T11:59:15.141Z,66.00
2017-10-23T12:01:42.830Z,65.90
2017-10-23T12:04:10.489Z,65.70
2017-10-23T12:06:38.149Z,66.00
2017-10-23T12:09:05.949Z,66.20
2017-10-23T12:11:35.425Z,66.50
2017-10-23T12:14:03.403Z,68.80
2017-10-23T12:19:00.400Z,68.90
2017-10-23T12:21:28.053Z,67.00
2017-10-23T12:23:55.692Z,68.30
2017-10-23T12:26:24.584Z,66.10
2017-10-23T12:28:52.424Z,68.50
2017-10-23T12:31:20.666Z,69.00
2017-10-23T12:33:48.377Z,68.70
2017-10-23T12:36:16.135Z,71.40
2017-10-23T12:38:44.395Z,71.00
2017-10-23T12:41:12.182Z,73.70
2017-10-23T12:43:40.253Z,68.70
2017-10-23T12:46:07.941Z,69.70
2017-10-23T12:48:35.709Z,68.70
2017-10-23T12:51:03.340Z,70.40
2017-10-23T12:53:31.101Z,66.00
2017-10-23T12:55:58.795Z,66.50
2017-10-23T12:58:26.645Z,65.10
2017-10-23T13:00:54.431Z,64.90
2017-10-23T13:03:22.358Z,64.90
2017-10-23T13:05:51.402Z,65.00
2017-10-23T13:08:19.151Z,65.00
2017-10-23T13:10:47.010Z,63.80
2017-10-23T13:13:14.850Z,64.10
2017-10-23T13:15:42.646Z,64.70
2017-10-23T13:18:11.321Z,62.40
2017-10-23T13:20:39.153Z,63.10
2017-10-23T13:23:07.011Z,60.80
2017-10-23T13:25:35.088Z,61.10
2017-10-23T13:28:02.840Z,61.30
2017-10-23T13:30:30.763Z,60.90
2017-10-23T13:32:58.828Z,61.60
2017-10-23T13:35:26.561Z,61.70
2017-10-23T13:37:54.416Z,58.50
2017-10-23T13:40:22.154Z,57.00
2017-10-23T13:42:50.165Z,56.50
2017-10-23T13:45:18.227Z,57.70
2017-10-23T13:47:45.957Z,55.80
2017-10-23T13:50:14.053Z,55.10
2017-10-23T13:52:41.730Z,55.60
2017-10-23T13:55:09.450Z,55.90
2017-10-23T13:57:37.259Z,56.80
2017-10-23T14:00:05.096Z,57.70
2017-10-23T14:02:33.677Z,58.50
2017-10-23T14:05:01.468Z,58.60
2017-10-23T14:07:29.307Z,58.90
2017-10-23T14:09:57.197Z,59.60
2017-10-23T14:12:25.128Z,60.40
2017-10-23T14:14:52.957Z,59.60
2017-10-23T14:17:20.758Z,60.70
2017-10-23T14:19:48.674Z,60.90
2017-10-23T14:22:16.500Z,61.40
2017-10-23T14:24:44.273Z,61.10
2017-10-23T14:27:12.045Z,60.90
2017-10-23T14:29:39.824Z,60.70
2017-10-23T14:32:07.477Z,59.10
2017-10-23T14:34:35.174Z,59.60
2017-10-23T14:37:02.987Z,58.10
2017-10-23T14:39:30.931Z,57.20
2017-10-23T14:41:58.842Z,57.90
2017-10-23T14:44:26.767Z,58.40
2017-10-23T14:46:55.408Z,57.90
2017-10-23T14:49:23.213Z,58.00
2017-10-23T14:51:52.151Z,57.80
2017-10-23T14:54:25.950Z,58.70
2017-10-23T14:56:53.711Z,58.90
2017-10-23T14:59:24.034Z,59.40
2017-10-23T15:01:52.084Z,60.70
2017-10-23T15:04:19.843Z,61.40
2017-10-23T15:06:48.341Z,62.50
2017-10-23T15:09:16.469Z,65.00
2017-10-23T15:11:44.104Z,66.10
2017-10-23T15:14:12.530Z,66.70
2017-10-23T15:16:40.293Z,67.70
2017-10-23T15:19:08.037Z,67.80
2017-10-23T15:21:35.949Z,68.70
2017-10-23T15:24:04.512Z,68.20
2017-10-23T15:26:32.274Z,69.60
2017-10-23T15:29:00.045Z,69.70
2017-10-23T15:31:27.942Z,68.40
2017-10-23T15:33:55.788Z,69.10
2017-10-23T15:36:23.555Z,70.20
2017-10-23T15:41:20.518Z,69.70
2017-10-23T15:43:48.366Z,69.80
2017-10-23T15:46:16.206Z,70.40
2017-10-23T15:51:13.252Z,71.10
2017-10-23T15:53:41.051Z,72.10
2017-10-23T15:56:08.709Z,71.30
2017-10-23T15:58:36.416Z,70.50
2017-10-23T16:01:04.121Z,70.00
2017-10-23T16:03:32.273Z,69.50
2017-10-23T16:06:00.161Z,70.50
2017-10-23T16:08:27.958Z,68.40
2017-10-23T16:10:55.729Z,69.50
2017-10-23T16:13:24.698Z,68.50
2017-10-23T16:15:53.238Z,68.30
2017-10-23T16:18:21.437Z,69.30
2017-10-23T16:20:49.539Z,70.70
2017-10-23T16:23:17.248Z,69.60
2017-10-23T16:25:45.669Z,69.50
2017-10-23T16:28:13.441Z,70.40
2017-10-23T16:30:41.261Z,69.80
2017-10-23T16:33:09.138Z,71.80
2017-10-23T16:38:09.095Z,69.70
2017-10-23T16:40:36.842Z,73.10
2017-10-23T16:43:04.719Z,70.10
2017-10-23T16:45:32.411Z,72.00
2017-10-23T16:48:00.683Z,69.80
2017-10-23T16:50:28.436Z,70.10
2017-10-23T16:52:56.061Z,69.30
2017-10-23T16:55:24.960Z,69.10
2017-10-23T16:57:52.788Z,70.70
2017-10-23T17:00:20.534Z,69.10
2017-10-23T17:02:48.210Z,71.80
2017-10-23T17:07:45.142Z,72.80
2017-10-23T17:10:12.853Z,73.60
2017-10-23T17:12:40.757Z,71.30
2017-10-23T17:17:38.025Z,70.50
2017-10-23T17:20:05.891Z,69.60
2017-10-23T17:22:33.868Z,70.90
2017-10-23T17:25:02.546Z,69.10
2017-10-23T17:27:31.985Z,69.30
2017-10-23T17:29:59.905Z,70.30
2017-10-23T17:32:28.080Z,69.30
2017-10-23T17:34:55.848Z,72.80
2017-10-23T17:39:52.810Z,69.10
2017-10-23T17:42:20.645Z,68.80
2017-10-23T17:44:48.340Z,68.80
2017-10-23T17:47:16.389Z,68.10
2017-10-23T17:49:44.628Z,68.90
2017-10-23T17:52:13.643Z,68.60
2017-10-23T17:54:41.508Z,69.00
2017-10-23T17:59:39.413Z,72.30
2017-10-23T18:02:08.158Z,68.50
2017-10-23T18:04:37.037Z,68.70
2017-10-23T18:07:05.554Z,68.90
2017-10-23T18:09:33.484Z,69.30
2017-10-23T18:12:01.591Z,69.40
2017-10-23T18:14:29.209Z,72.60
2017-10-23T18:16:56.998Z,70.60
2017-10-23T18:19:25.803Z,68.30
2017-10-23T18:21:53.522Z,70.80
2017-10-23T18:24:21.940Z,68.80
2017-10-23T18:26:49.713Z,69.20
2017-10-23T18:29:17.630Z,69.70
2017-10-23T18:31:45.411Z,70.60
2017-10-23T18:34:14.337Z,70.00
2017-10-23T18:36:42.069Z,75.10
2017-10-23T18:39:09.933Z,77.20
2017-10-23T18:41:38.493Z,72.40
2017-10-23T18:44:07.929Z,72.00
2017-10-23T18:46:36.201Z,73.60
2017-10-23T18:49:04.002Z,72.00
2017-10-23T18:51:31.852Z,75.70
2017-10-23T18:54:00.428Z,72.30
2017-10-23T18:56:28.349Z,72.20
2017-10-23T18:58:56.232Z,78.00
2017-10-23T19:01:24.125Z,73.50
2017-10-23T19:03:53.588Z,73.00
2017-10-23T19:06:21.965Z,77.20
2017-10-23T19:08:50.069Z,74.70
2017-10-23T19:11:17.800Z,74.80
2017-10-23T19:13:46.917Z,75.00
2017-10-23T19:16:15.215Z,75.30
2017-10-23T19:18:43.099Z,80.50
2017-10-23T19:21:11.415Z,77.40
2017-10-23T19:23:40.033Z,76.50
2017-10-23T19:26:08.644Z,76.50
2017-10-23T19:28:36.370Z,75.90
2017-10-23T19:31:04.093Z,82.10
2017-10-23T19:33:31.897Z,82.20
2017-10-23T19:35:59.890Z,81.30
2017-10-23T19:38:27.755Z,77.30
2017-10-23T19:40:56.489Z,77.40
2017-10-23T19:43:24.528Z,82.00
2017-10-23T19:45:54.114Z,76.70
2017-10-23T19:48:21.955Z,77.10
2017-10-23T19:50:50.424Z,76.40
2017-10-23T19:53:18.523Z,77.50
2017-10-23T19:55:46.668Z,75.90
2017-10-23T20:00:44.114Z,75.10
2017-10-23T20:03:11.909Z,76.50
2017-10-23T20:05:39.797Z,81.70
2017-10-23T20:08:07.604Z,76.50
2017-10-23T20:13:04.811Z,76.30
2017-10-23T20:15:33.722Z,76.90
2017-10-23T20:18:02.488Z,77.40
2017-10-23T20:20:30.866Z,77.20
2017-10-23T20:22:58.893Z,76.30
2017-10-23T20:25:27.209Z,77.10
2017-10-23T20:27:55.259Z,76.90
2017-10-23T20:30:23.581Z,77.50
2017-10-23T20:32:52.272Z,77.30
2017-10-23T20:35:20.288Z,77.10
2017-10-23T20:37:47.860Z,82.50
2017-10-23T20:40:15.486Z,77.90
2017-10-23T20:42:43.067Z,82.10
2017-10-23T20:45:11.464Z,75.20
2017-10-23T20:47:39.061Z,75.60
2017-10-23T20:50:06.845Z,81.60
2017-10-23T20:52:34.788Z,74.90
2017-10-23T20:55:02.517Z,74.80
2017-10-23T20:57:31.129Z,74.90
2017-10-23T20:59:58.819Z,78.70
2017-10-23T21:02:27.012Z,75.30
2017-10-23T21:04:55.106Z,75.60
2017-10-23T21:07:23.294Z,81.30
2017-10-23T21:09:51.268Z,74.70
2017-10-23T21:12:19.459Z,74.80
2017-10-23T21:14:47.813Z,77.40
2017-10-23T21:17:16.063Z,75.20
2017-10-23T21:19:44.673Z,76.30
2017-10-23T21:22:12.785Z,76.90
2017-10-23T21:24:41.300Z,75.30
2017-10-23T21:27:09.807Z,74.50
2017-10-23T21:29:37.433Z,74.70
2017-10-23T21:32:05.543Z,75.30
2017-10-23T21:34:33.625Z,75.90
2017-10-23T21:37:02.168Z,75.80
2017-10-23T21:39:30.628Z,76.20
2017-10-23T21:44:27.890Z,75.70
2017-10-23T21:47:07.923Z,75.60
2017-10-23T21:49:36.462Z,75.30
2017-10-23T21:52:05.226Z,75.50
2017-10-23T21:54:33.465Z,75.90
2017-10-23T21:57:01.159Z,78.00
2017-10-23T21:59:28.909Z,78.60
2017-10-23T22:01:56.634Z,76.20
2017-10-23T22:04:24.312Z,73.70
2017-10-23T22:06:52.075Z,76.90
2017-10-23T22:09:19.861Z,76.30
2017-10-23T22:11:48.265Z,73.60
2017-10-23T22:14:15.994Z,73.90
2017-10-23T22:16:43.774Z,79.20
2017-10-23T22:19:11.957Z,73.30
2017-10-23T22:21:40.101Z,75.30
2017-10-23T22:24:08.218Z,76.40
2017-10-23T22:26:36.317Z,77.50
2017-10-23T22:29:04.398Z,78.40
2017-10-23T22:31:32.611Z,76.90
2017-10-23T22:34:01.204Z,76.90
2017-10-23T22:36:28.952Z,76.30
2017-10-23T22:38:57.103Z,75.60
2017-10-23T22:41:25.336Z,76.80
2017-10-23T22:43:53.870Z,76.70
2017-10-23T22:46:21.655Z,76.60
2017-10-23T22:48:50.333Z,76.00
2017-10-23T22:51:18.787Z,76.60
2017-10-23T22:53:47.276Z,76.60
2017-10-23T22:56:14.981Z,82.20
2017-10-23T22:58:43.146Z,76.90
2017-10-23T23:01:11.182Z,75.50
2017-10-23T23:03:39.401Z,75.80
2017-10-23T23:06:07.621Z,77.10
2017-10-23T23:08:35.745Z,77.30
2017-10-23T23:11:04.355Z,77.10
2017-10-23T23:13:32.870Z,78.40
2017-10-23T23:16:01.037Z,77.40
2017-10-23T23:18:29.217Z,76.40
2017-10-23T23:20:57.384Z,78.90
2017-10-23T23:23:25.249Z,77.80
2017-10-23T23:25:53.480Z,76.60
2017-10-23T23:28:22.011Z,78.30
2017-10-23T23:30:50.485Z,79.10
2017-10-23T23:33:18.644Z,79.10
2017-10-23T23:35:47.137Z,78.70
2017-10-23T23:38:15.327Z,78.20
2017-10-23T23:40:43.418Z,78.10
2017-10-23T23:43:11.142Z,78.50
2017-10-23T23:45:39.693Z,77.40
2017-10-23T23:48:08.276Z,77.00
2017-10-23T23:50:36.472Z,76.90
2017-10-23T23:53:04.581Z,77.20
2017-10-23T23:55:33.787Z,77.40
2017-10-23T23:58:02.203Z,77.10
